createdAt,value
2022-09-23T00:02:22.690Z,19.18
2022-09-23T00:05:26.893Z,19.03
2022-09-23T00:08:29.680Z,18.85
2022-09-23T00:11:32.378Z,18.84
2022-09-23T00:14:35.039Z,19.10
2022-09-23T00:17:38.061Z,19.27
2022-09-23T00:20:42.088Z,19.15
2022-09-23T00:23:44.970Z,19.26
2022-09-23T00:26:47.681Z,19.07
2022-09-23T00:29:50.360Z,19.21
2022-09-23T00:32:53.985Z,19.32
2022-09-23T00:36:00.792Z,19.14
2022-09-23T00:39:04.553Z,19.21
2022-09-23T00:42:08.091Z,19.30
2022-09-23T00:45:12.073Z,19.24
2022-09-23T00:48:17.091Z,19.16
2022-09-23T00:51:22.520Z,19.13
2022-09-23T00:54:27.563Z,19.09
2022-09-23T00:57:30.695Z,19.04
2022-09-23T01:00:35.592Z,19.06
2022-09-23T01:03:38.282Z,19.14
2022-09-23T01:06:42.594Z,19.17
2022-09-23T01:09:45.961Z,19.23
2022-09-23T01:12:57.873Z,19.16
2022-09-23T01:16:06.898Z,19.21
2022-09-23T01:19:18.186Z,19.06
2022-09-23T01:22:26.307Z,19.32
2022-09-23T01:25:37.760Z,19.17
2022-09-23T01:29:03.490Z,18.98
2022-09-23T01:32:12.787Z,18.92
2022-09-23T01:35:23.860Z,19.14
2022-09-23T01:38:31.678Z,19.12
2022-09-23T01:41:52.527Z,19.23
2022-09-23T01:44:58.110Z,19.24
2022-09-23T01:48:04.215Z,19.12
2022-09-23T01:51:09.657Z,18.96
2022-09-23T01:54:15.871Z,19.10
2022-09-23T01:57:24.339Z,18.96
2022-09-23T02:00:30.710Z,19.04
2022-09-23T02:03:36.893Z,19.11
2022-09-23T02:06:43.384Z,19.10
2022-09-23T02:09:48.193Z,19.12
2022-09-23T02:12:54.099Z,19.09
2022-09-23T02:15:59.003Z,19.31
2022-09-23T02:19:06.942Z,19.06
2022-09-23T02:22:10.908Z,19.19
2022-09-23T02:25:16.299Z,19.08
2022-09-23T02:28:21.388Z,19.08
2022-09-23T02:31:29.012Z,18.96
2022-09-23T02:34:39.482Z,19.10
2022-09-23T02:37:44.706Z,18.98
2022-09-23T02:40:51.541Z,19.04
2022-09-23T02:43:57.140Z,18.97
2022-09-23T02:46:59.889Z,19.12
2022-09-23T02:50:04.078Z,19.02
2022-09-23T02:53:08.570Z,19.01
2022-09-23T02:56:15.327Z,19.06
2022-09-23T02:59:19.539Z,19.22
2022-09-23T03:02:39.976Z,18.97
2022-09-23T03:05:48.016Z,19.07
2022-09-23T03:08:55.893Z,19.06
2022-09-23T03:12:05.470Z,19.14
2022-09-23T03:15:13.560Z,19.29
2022-09-23T03:18:18.293Z,19.17
2022-09-23T03:21:25.088Z,19.24
2022-09-23T03:24:28.867Z,19.00
2022-09-23T03:27:33.658Z,19.06
2022-09-23T03:30:37.139Z,19.04
2022-09-23T03:33:41.843Z,19.09
2022-09-23T03:36:53.876Z,19.01
2022-09-23T03:40:00.933Z,19.09
2022-09-23T03:43:05.058Z,19.19
2022-09-23T03:46:08.802Z,19.11
2022-09-23T03:49:15.946Z,19.15
2022-09-23T03:52:21.503Z,19.14
2022-09-23T03:55:24.159Z,19.18
2022-09-23T03:58:26.849Z,18.93
2022-09-23T04:01:29.791Z,19.08
2022-09-23T04:04:34.351Z,19.13
2022-09-23T04:07:38.571Z,19.11
2022-09-23T04:10:41.863Z,19.14
2022-09-23T04:13:44.556Z,19.14
2022-09-23T04:16:47.699Z,19.09
2022-09-23T04:19:50.472Z,19.06
2022-09-23T04:22:54.512Z,19.02
2022-09-23T04:25:57.249Z,19.06
2022-09-23T04:29:00.211Z,18.89
2022-09-23T04:32:03.076Z,18.96
2022-09-23T04:35:06.202Z,19.07
2022-09-23T04:38:11.319Z,19.10
2022-09-23T04:41:14.294Z,18.94
2022-09-23T04:44:17.261Z,18.79
2022-09-23T04:47:19.925Z,18.81
2022-09-23T04:50:22.663Z,18.87
2022-09-23T04:53:26.671Z,18.81
2022-09-23T04:56:32.624Z,18.74
2022-09-23T04:59:35.282Z,18.81
2022-09-23T05:02:43.086Z,18.86
2022-09-23T05:05:46.159Z,18.93
2022-09-23T05:08:51.466Z,19.07
2022-09-23T05:11:54.187Z,18.97
2022-09-23T05:14:56.930Z,18.87
2022-09-23T05:17:59.778Z,18.78
2022-09-23T05:21:02.907Z,18.78
2022-09-23T05:24:07.301Z,18.89
2022-09-23T05:27:10.125Z,18.84
2022-09-23T05:30:13.046Z,18.87
2022-09-23T05:33:15.681Z,18.78
2022-09-23T05:36:18.913Z,18.88
2022-09-23T05:39:22.919Z,19.08
2022-09-23T05:42:25.555Z,19.01
2022-09-23T05:45:29.033Z,19.05
2022-09-23T05:48:32.482Z,18.92
2022-09-23T05:51:35.850Z,18.89
2022-09-23T05:54:40.375Z,19.04
2022-09-23T05:57:43.201Z,18.77
2022-09-23T06:00:45.977Z,18.88
2022-09-23T06:03:50.170Z,18.96
2022-09-23T06:06:53.421Z,19.04
2022-09-23T06:09:57.471Z,18.92
2022-09-23T06:13:00.124Z,18.92
2022-09-23T06:16:03.331Z,18.98
2022-09-23T06:19:07.011Z,18.81
2022-09-23T06:22:11.059Z,18.80
2022-09-23T06:25:15.166Z,18.75
2022-09-23T06:28:19.047Z,18.86
2022-09-23T06:31:21.841Z,18.74
2022-09-23T06:34:24.520Z,18.79
2022-09-23T06:37:27.274Z,18.79
2022-09-23T06:40:32.160Z,18.81
2022-09-23T06:43:35.177Z,18.89
2022-09-23T06:46:37.921Z,18.93
2022-09-23T06:49:40.756Z,18.80
2022-09-23T06:52:43.615Z,18.92
2022-09-23T06:55:47.672Z,18.70
2022-09-23T06:58:52.654Z,18.83
2022-09-23T07:01:55.600Z,18.94
2022-09-23T07:04:58.360Z,18.84
2022-09-23T07:08:01.144Z,18.94
2022-09-23T07:11:06.769Z,18.96
2022-09-23T07:14:10.897Z,19.03
2022-09-23T07:17:13.683Z,18.96
2022-09-23T07:20:18.022Z,18.88
2022-09-23T07:23:20.686Z,18.98
2022-09-23T07:26:24.956Z,19.11
2022-09-23T07:29:28.122Z,19.06
2022-09-23T07:32:42.590Z,19.12
2022-09-23T07:35:50.652Z,19.29
2022-09-23T07:38:53.393Z,19.09
2022-09-23T07:41:58.445Z,19.29
2022-09-23T07:45:02.230Z,19.33
2022-09-23T07:48:07.439Z,19.28
2022-09-23T07:51:10.679Z,19.26
2022-09-23T07:54:14.636Z,19.30
2022-09-23T07:57:21.366Z,19.40
2022-09-23T08:00:24.077Z,19.46
2022-09-23T08:03:26.705Z,19.36
2022-09-23T08:06:29.430Z,19.45
2022-09-23T08:09:38.332Z,19.53
2022-09-23T08:12:42.406Z,19.58
2022-09-23T08:15:53.243Z,19.74
2022-09-23T08:18:58.394Z,19.80
2022-09-23T08:22:01.202Z,19.75
2022-09-23T08:25:04.371Z,19.91
2022-09-23T08:28:10.313Z,19.80
2022-09-23T08:31:13.671Z,19.99
2022-09-23T08:34:18.040Z,19.98
2022-09-23T08:37:20.707Z,19.96
2022-09-23T08:40:23.583Z,20.02
2022-09-23T08:43:32.811Z,19.92
2022-09-23T08:46:37.939Z,20.09
2022-09-23T08:49:42.895Z,20.07
2022-09-23T08:52:50.370Z,20.06
2022-09-23T08:55:54.659Z,20.08
2022-09-23T08:59:03.014Z,20.12
2022-09-23T09:02:07.801Z,20.10
2022-09-23T09:05:14.465Z,20.12
2022-09-23T09:08:24.020Z,20.16
2022-09-23T09:11:31.316Z,20.10
2022-09-23T09:14:38.755Z,20.20
2022-09-23T09:17:47.425Z,20.24
2022-09-23T09:20:54.877Z,20.24
2022-09-23T09:23:58.243Z,20.18
2022-09-23T09:27:02.140Z,20.24
2022-09-23T09:30:13.735Z,20.37
2022-09-23T09:33:18.039Z,20.57
2022-09-23T09:36:24.830Z,20.65
2022-09-23T09:39:28.549Z,20.69
2022-09-23T09:42:39.110Z,20.67
2022-09-23T09:45:57.830Z,20.77
2022-09-23T09:49:06.571Z,20.74
2022-09-23T09:52:13.014Z,20.85
2022-09-23T09:55:25.701Z,20.84
2022-09-23T09:58:31.239Z,20.86
2022-09-23T10:01:35.891Z,20.84
2022-09-23T10:04:39.546Z,20.79
2022-09-23T10:07:42.312Z,20.79
2022-09-23T10:10:54.935Z,20.91
2022-09-23T10:14:12.515Z,20.89
2022-09-23T10:17:20.578Z,20.93
2022-09-23T10:20:23.344Z,20.95
2022-09-23T10:23:29.411Z,20.93
2022-09-23T10:26:33.702Z,20.97
2022-09-23T10:29:39.603Z,20.85
2022-09-23T10:32:58.179Z,20.98
2022-09-23T10:36:01.893Z,21.04
2022-09-23T10:39:19.483Z,20.97
2022-09-23T10:42:46.548Z,20.97
2022-09-23T10:46:07.340Z,20.93
2022-09-23T10:49:28.674Z,21.08
2022-09-23T10:52:46.130Z,21.16
2022-09-23T10:55:56.498Z,21.23
2022-09-23T10:59:21.989Z,21.21
2022-09-23T11:02:43.010Z,21.21
2022-09-23T11:05:48.799Z,21.15
2022-09-23T11:08:58.756Z,21.24
2022-09-23T11:12:10.194Z,21.31
2022-09-23T11:15:28.640Z,21.47
2022-09-23T11:18:52.667Z,21.56
2022-09-23T11:22:02.470Z,21.61
2022-09-23T11:25:14.487Z,21.60
2022-09-23T11:28:33.227Z,21.70
2022-09-23T11:31:38.989Z,21.75
2022-09-23T11:34:54.849Z,21.86
2022-09-23T11:37:59.339Z,21.81
2022-09-23T11:41:09.370Z,21.80
2022-09-23T11:44:16.323Z,21.75
2022-09-23T11:47:23.331Z,21.75
2022-09-23T11:50:30.211Z,21.82
2022-09-23T11:53:37.669Z,21.82
2022-09-23T11:56:47.915Z,21.88
2022-09-23T11:59:55.003Z,21.88
2022-09-23T12:03:05.864Z,21.96
2022-09-23T12:06:13.429Z,21.94
2022-09-23T12:09:41.003Z,22.04
2022-09-23T12:12:54.240Z,22.19
2022-09-23T12:16:06.300Z,22.22
2022-09-23T12:19:18.949Z,22.27
2022-09-23T12:22:31.888Z,22.29
2022-09-23T12:25:39.061Z,22.63
2022-09-23T12:28:46.266Z,22.96
2022-09-23T12:31:50.108Z,23.07
2022-09-23T12:34:56.792Z,23.12
2022-09-23T12:38:03.021Z,23.18
2022-09-23T12:41:25.915Z,23.08
2022-09-23T12:44:38.260Z,23.03
2022-09-23T12:47:42.410Z,23.00
2022-09-23T12:50:55.947Z,22.88
2022-09-23T12:54:14.208Z,16.90
2022-09-23T12:57:38.026Z,21.47
2022-09-23T13:01:02.518Z,22.39
2022-09-23T13:04:24.010Z,22.61
2022-09-23T13:07:30.892Z,22.60
2022-09-23T13:10:36.898Z,22.54
2022-09-23T13:13:41.748Z,22.57
2022-09-23T13:16:46.259Z,22.57
2022-09-23T13:19:58.375Z,22.55
2022-09-23T13:23:08.140Z,22.47
2022-09-23T13:26:13.120Z,22.38
2022-09-23T13:29:18.716Z,22.31
2022-09-23T13:32:26.619Z,22.26
2022-09-23T13:35:34.884Z,22.17
2022-09-23T13:38:38.624Z,22.10
2022-09-23T13:41:41.318Z,22.04
2022-09-23T13:44:44.175Z,21.97
2022-09-23T13:47:49.177Z,21.91
2022-09-23T13:50:53.405Z,21.86
2022-09-23T13:53:57.105Z,21.78
2022-09-23T13:57:00.330Z,21.73
2022-09-23T14:00:04.079Z,21.73
2022-09-23T14:03:36.519Z,21.62
2022-09-23T14:06:42.117Z,21.58
2022-09-23T14:09:48.152Z,21.42
2022-09-23T14:12:52.420Z,21.44
2022-09-23T14:16:01.010Z,21.40
2022-09-23T14:19:03.793Z,21.27
2022-09-23T14:22:25.953Z,21.12
2022-09-23T14:25:28.687Z,20.89
2022-09-23T14:28:31.619Z,20.85
2022-09-23T14:31:34.407Z,20.85
2022-09-23T14:34:40.763Z,20.77
2022-09-23T14:38:03.064Z,20.66
2022-09-23T14:41:18.185Z,20.54
2022-09-23T14:44:26.142Z,20.25
2022-09-23T14:47:29.772Z,20.16
2022-09-23T14:50:47.253Z,19.96
2022-09-23T14:53:51.752Z,19.76
2022-09-23T14:56:57.978Z,20.13
2022-09-23T15:00:02.565Z,20.08
2022-09-23T15:03:14.637Z,19.85
2022-09-23T15:06:17.817Z,19.82
2022-09-23T15:09:24.952Z,19.80
2022-09-23T15:12:28.716Z,19.84
2022-09-23T15:15:31.444Z,19.87
2022-09-23T15:18:37.143Z,20.10
2022-09-23T15:21:41.137Z,20.08
2022-09-23T15:24:46.739Z,19.92
2022-09-23T15:28:00.077Z,20.07
2022-09-23T15:31:06.331Z,20.10
2022-09-23T15:34:15.127Z,20.05
2022-09-23T15:37:18.424Z,20.09
2022-09-23T15:40:25.255Z,19.97
2022-09-23T15:43:29.015Z,19.98
2022-09-23T15:46:35.215Z,20.00
2022-09-23T15:49:46.357Z,19.95
2022-09-23T15:52:52.695Z,19.86
2022-09-23T15:56:00.593Z,19.52
2022-09-23T15:59:04.947Z,19.67
2022-09-23T16:02:16.792Z,19.63
2022-09-23T16:05:26.077Z,19.52
2022-09-23T16:08:29.536Z,19.49
2022-09-23T16:11:36.287Z,19.44
2022-09-23T16:14:40.252Z,19.34
2022-09-23T16:17:46.459Z,19.33
2022-09-23T16:20:53.176Z,19.28
2022-09-23T16:23:59.595Z,19.28
2022-09-23T16:27:07.910Z,19.17
2022-09-23T16:30:11.485Z,19.13
2022-09-23T16:33:14.713Z,19.25
2022-09-23T16:36:22.158Z,19.27
2022-09-23T16:39:26.178Z,19.05
2022-09-23T16:42:30.222Z,19.14
2022-09-23T16:45:32.967Z,19.13
2022-09-23T16:48:48.301Z,19.21
2022-09-23T16:51:56.942Z,19.12
2022-09-23T16:55:02.645Z,19.18
2022-09-23T16:58:12.211Z,18.83
2022-09-23T17:01:34.791Z,19.21
2022-09-23T17:04:39.429Z,19.15
2022-09-23T17:07:45.290Z,19.24
2022-09-23T17:10:57.174Z,19.36
2022-09-23T17:14:01.454Z,19.38
2022-09-23T17:17:04.214Z,19.39
2022-09-23T17:20:10.298Z,19.16
2022-09-23T17:23:14.283Z,19.07
2022-09-23T17:26:18.120Z,19.02
2022-09-23T17:29:22.360Z,19.16
2022-09-23T17:32:26.049Z,19.27
2022-09-23T17:35:29.336Z,19.21
2022-09-23T17:38:33.627Z,19.35
2022-09-23T17:41:39.644Z,19.42
2022-09-23T17:44:44.749Z,19.44
2022-09-23T17:47:51.800Z,19.33
2022-09-23T17:50:57.699Z,19.34
2022-09-23T17:54:00.458Z,19.36
2022-09-23T17:57:03.791Z,19.54
2022-09-23T18:00:22.528Z,19.41
2022-09-23T18:03:34.035Z,19.24
2022-09-23T18:06:46.387Z,19.26
2022-09-23T18:09:49.931Z,19.26
2022-09-23T18:12:53.562Z,18.89
2022-09-23T18:16:06.995Z,18.87
2022-09-23T18:19:13.053Z,18.87
2022-09-23T18:22:21.901Z,19.17
2022-09-23T18:25:39.240Z,18.99
2022-09-23T18:28:50.590Z,18.94
2022-09-23T18:32:00.636Z,18.91
2022-09-23T18:35:03.901Z,18.97
2022-09-23T18:38:06.970Z,19.16
2022-09-23T18:41:12.098Z,18.92
2022-09-23T18:44:16.087Z,19.01
2022-09-23T18:47:38.497Z,18.98
2022-09-23T18:50:45.668Z,18.78
2022-09-23T18:53:53.216Z,18.95
2022-09-23T18:56:56.236Z,18.49
2022-09-23T19:00:13.259Z,18.85
2022-09-23T19:03:19.386Z,18.81
2022-09-23T19:06:24.588Z,18.94
2022-09-23T19:09:32.692Z,18.79
2022-09-23T19:12:36.608Z,18.71
2022-09-23T19:15:40.552Z,18.79
2022-09-23T19:18:47.914Z,18.72
2022-09-23T19:21:53.179Z,18.67
2022-09-23T19:24:56.016Z,18.05
2022-09-23T19:28:00.743Z,18.49
2022-09-23T19:31:11.524Z,18.61
2022-09-23T19:34:18.798Z,18.62
2022-09-23T19:37:22.918Z,18.74
2022-09-23T19:40:25.967Z,18.52
2022-09-23T19:43:29.853Z,18.63
2022-09-23T19:46:33.563Z,18.51
2022-09-23T19:49:37.847Z,18.54
2022-09-23T19:52:41.730Z,18.36
2022-09-23T19:55:44.682Z,18.29
2022-09-23T19:58:48.519Z,18.18
2022-09-23T20:01:51.319Z,18.12
2022-09-23T20:04:55.440Z,18.33
2022-09-23T20:07:59.134Z,18.39
2022-09-23T20:11:12.381Z,18.40
2022-09-23T20:14:15.245Z,18.31
2022-09-23T20:17:20.879Z,18.19
2022-09-23T20:20:24.953Z,18.35
2022-09-23T20:23:29.093Z,18.05
2022-09-23T20:26:49.212Z,18.13
2022-09-23T20:29:52.237Z,18.10
2022-09-23T20:32:54.950Z,18.06
2022-09-23T20:36:00.982Z,18.19
2022-09-23T20:39:05.806Z,18.15
2022-09-23T20:42:09.356Z,17.97
2022-09-23T20:45:12.103Z,18.08
2022-09-23T20:48:14.752Z,17.88
2022-09-23T20:51:18.940Z,17.84
2022-09-23T20:54:23.192Z,17.94
2022-09-23T20:57:27.691Z,18.16
2022-09-23T21:00:30.485Z,18.05
2022-09-23T21:03:33.905Z,18.04
2022-09-23T21:06:38.888Z,17.90
2022-09-23T21:09:41.648Z,17.82
2022-09-23T21:12:46.021Z,18.10
2022-09-23T21:15:48.794Z,18.03
2022-09-23T21:18:51.896Z,17.85
2022-09-23T21:21:56.246Z,17.88
2022-09-23T21:28:22.764Z,17.99
2022-09-23T21:31:26.394Z,17.79
2022-09-23T21:34:32.857Z,17.81
2022-09-23T21:37:36.897Z,17.85
2022-09-23T21:40:53.467Z,17.89
2022-09-23T21:43:56.386Z,18.03
2022-09-23T21:46:59.399Z,18.03
2022-09-23T21:50:02.626Z,17.76
2022-09-23T21:53:07.211Z,18.23
2022-09-23T21:56:10.963Z,18.15
2022-09-23T21:59:13.842Z,18.19
2022-09-23T22:02:17.313Z,18.13
2022-09-23T22:05:23.182Z,18.15
2022-09-23T22:08:27.412Z,18.45
2022-09-23T22:11:48.671Z,18.32
2022-09-23T22:14:52.468Z,18.39
2022-09-23T22:17:55.608Z,18.24
2022-09-23T22:20:59.741Z,18.22
2022-09-23T22:24:05.093Z,18.18
2022-09-23T22:27:07.946Z,18.26
2022-09-23T22:30:28.557Z,18.04
2022-09-23T22:33:31.202Z,18.05
2022-09-23T22:36:33.899Z,17.94
2022-09-23T22:39:38.057Z,18.01
2022-09-23T22:42:42.350Z,18.25
2022-09-23T22:45:49.802Z,18.05
2022-09-23T22:48:53.435Z,18.05
2022-09-23T22:51:56.149Z,18.15
2022-09-23T22:55:00.230Z,18.14
2022-09-23T22:58:21.197Z,18.15
2022-09-23T23:01:25.800Z,18.10
2022-09-23T23:04:29.783Z,18.11
2022-09-23T23:07:36.207Z,17.99
2022-09-23T23:10:40.981Z,18.01
2022-09-23T23:13:43.764Z,18.10
2022-09-23T23:16:46.784Z,18.15
2022-09-23T23:19:50.552Z,18.09
2022-09-23T23:22:53.420Z,18.17
2022-09-23T23:25:57.494Z,17.95
2022-09-23T23:29:00.914Z,18.01
2022-09-23T23:32:03.653Z,17.91
2022-09-23T23:35:06.771Z,18.11
2022-09-23T23:38:11.305Z,17.83
2022-09-23T23:41:16.229Z,18.08
2022-09-23T23:44:18.947Z,18.22
2022-09-23T23:47:22.220Z,17.97
2022-09-23T23:50:24.945Z,18.07
2022-09-23T23:53:30.416Z,18.05
2022-09-23T23:56:34.435Z,17.93
2022-09-23T23:59:37.068Z,17.87
